Bookmark and Share
Track history (hours):
 

Drifting buoy 17920

Last reported at 2013-Jun-16 05:50 UTC. Time now 2014-Apr-19 14:35 UTC.
Position S 31°18' W 003°56'.
Warning: this ship's position is months out of date.

Water temperature 19.6 ° C

NotesDate/timePositionNaut miles runAvg speedWind from/ knotsBaromVisibWave heightAir tempDewpointWater temp
2013-Jun-16 05:50S 31°18' W 003°56'0 0.0 19.6
2013-Jun-15 18:00S 31°18' W 003°56'0 0.2 19.6
2013-Jun-15 17:00S 31°18' W 003°56'1 0.8 19.6
2013-Jun-15 16:00S 31°19' W 003°56'1 0.8 19.6
2013-Jun-15 15:00S 31°18' W 003°56'1 0.4 19.6
2013-Jun-15 12:00S 31°18' W 003°55'3 1.0 19.6
2013-Jun-15 09:00S 31°20' W 003°52'2 0.2 19.6
2013-Jun-15 01:00S 31°21' W 003°51'1 0.3 19.6
2013-Jun-14 23:00S 31°21' W 003°51'1 1.1 19.6
2013-Jun-14 22:00S 31°21' W 003°52'0 0.0 19.6
2013-Jun-14 21:00S 31°21' W 003°52'0 0.2 19.6
2013-Jun-14 20:00S 31°21' W 003°52'4 3.7 19.7
2013-Jun-14 19:00S 31°22' W 003°56'5 4.7 19.9
2013-Jun-14 18:00S 31°23' W 003°51'1 1.0 19.9
2013-Jun-14 17:00S 31°23' W 003°52'0 0.4 20.0
2013-Jun-14 16:00S 31°23' W 003°52'1 0.6 20.1
2013-Jun-14 15:00S 31°23' W 003°52'0 0.2 20.1
2013-Jun-14 14:00S 31°23' W 003°52'0 0.0 20.1
2013-Jun-14 12:00S 31°23' W 003°52'6 0.3 19.8
2013-Jun-13 19:00S 31°29' W 003°53'1 0.3 19.6
2013-Jun-13 17:00S 31°29' W 003°54'1 0.6 19.6
2013-Jun-13 16:00S 31°29' W 003°54'1 0.2 19.6
2013-Jun-13 12:00S 31°29' W 003°55'0 0.0 19.6
2013-Jun-13 11:00S 31°29' W 003°55'0 0.5 19.6
2013-Jun-13 10:00S 31°28' W 003°54'1 0.3 19.6
2013-Jun-13 06:00S 31°29' W 003°55'   19.6
2013-Jun-09 18:00S 31°24' W 004°20'2 0.8 19.7
2013-Jun-09 16:00S 31°22' W 004°21'2 0.6 19.8
2013-Jun-09 13:00S 31°20' W 004°21'10 0.5 19.8
2013-Jun-08 17:00S 31°11' W 004°16'1 0.9 19.8
2013-Jun-08 16:00S 31°12' W 004°17'0 0.0 19.8
2013-Jun-08 15:00S 31°12' W 004°17'1 0.6 19.8
2013-Jun-08 13:00S 31°11' W 004°16'8 1.0 19.8
2013-Jun-08 05:00S 31°05' W 004°09'0 0.0 19.7
2013-Jun-08 02:00S 31°05' W 004°09'0 0.0 19.8
2013-Jun-08 01:00S 31°05' W 004°09'0 0.0 19.8
2013-Jun-08 00:00S 31°05' W 004°09'1 0.4 19.8
2013-Jun-07 21:00S 31°04' W 004°09'0 0.0 19.8
2013-Jun-07 20:00S 31°04' W 004°09'0 0.0 19.8
2013-Jun-07 19:00S 31°04' W 004°09'0 0.0 19.8
2013-Jun-07 17:00S 31°04' W 004°09'1 0.4 19.8
2013-Jun-07 15:00S 31°04' W 004°10'3 2.6 19.9
2013-Jun-07 14:00S 31°04' W 004°07'0 0.0 19.9
2013-Jun-07 13:00S 31°04' W 004°07'2 0.5 19.9
2013-Jun-07 09:00S 31°02' W 004°09'0 0.0 19.7
2013-Jun-07 07:00S 31°02' W 004°09'2 2.2 19.7
2013-Jun-07 06:00S 31°01' W 004°06'1 0.4 19.7
2013-Jun-07 03:00S 31°00' W 004°05'0 0.3 19.7
2013-Jun-07 02:00S 31°00' W 004°05'0 0.0 19.7
2013-Jun-07 01:00S 31°00' W 004°05'1 0.7 19.7
2013-Jun-06 23:00S 31°00' W 004°04'0 0.0 19.8
2013-Jun-06 22:00S 31°00' W 004°04'0 0.0 19.8
2013-Jun-06 21:00S 31°00' W 004°04'0 0.0 19.8
2013-Jun-06 20:00S 31°00' W 004°04'1 0.7 19.8
2013-Jun-06 19:00S 30°60' W 004°03'1 1.2 19.9
2013-Jun-06 18:00S 30°60' W 004°02'2 1.2 20.0
2013-Jun-06 16:00S 30°58' W 004°03'1 0.9 20.3
2013-Jun-06 15:00S 30°59' W 004°03'2 1.6 20.4
2013-Jun-06 14:00S 30°58' W 004°01'0 0.0 20.5
2013-Jun-06 13:00S 30°58' W 004°01'0 0.0 20.4
2013-Jun-06 12:00S 30°58' W 004°01'3 1.1 20.0
2013-Jun-06 09:00S 30°57' W 003°57'1 0.8 19.7
2013-Jun-06 08:00S 30°57' W 003°57'1 0.7 19.7
2013-Jun-06 07:00S 30°56' W 003°56'0 0.0 19.7
2013-Jun-06 06:00S 30°56' W 003°56'   19.7

Dump ship's entire track history

sailing weather and tide predictions

Buoy 17920